Time;durP1;ratioP1;P1;durP2;ratioP2;P2;SDS_P1;SDS_P2;PMS_P1;PMS_P2;Temp;Humidity;BMP_temperature;BMP_pressure;BME280_temperature;BME280_humidity;BME280_pressure;Samples;Min_cycle;Max_cycle;Signal;HPM_P1;HPM_P2
2021/12/10 00:00:35;;;;;;;7.53;6.75;;;3.90;99.90;;;;;;5087084;28;20225;-64
2021/12/10 00:03:08;;;;;;;6.30;5.80;;;3.90;99.90;;;;;;5082336;28;20215;-65
2021/12/10 00:05:41;;;;;;;6.65;6.15;;;3.90;99.90;;;;;;5089481;28;20562;-63
2021/12/10 00:08:10;;;;;;;12.40;7.32;;;3.90;99.90;;;;;;5061355;28;20221;-64
2021/12/10 00:10:41;;;;;;;8.10;7.40;;;3.90;99.90;;;;;;5074742;28;20246;-65
2021/12/10 00:13:10;;;;;;;7.45;6.75;;;4.10;99.90;;;;;;5073070;28;20306;-65
2021/12/10 00:15:40;;;;;;;6.50;6.00;;;4.30;99.90;;;;;;5089408;28;20694;-65
2021/12/10 00:18:14;;;;;;;5.43;5.03;;;4.40;99.90;;;;;;5060941;28;20182;-66
2021/12/10 00:20:44;;;;;;;8.02;5.90;;;4.30;99.90;;;;;;5083658;28;20210;-65
2021/12/10 00:23:17;;;;;;;6.70;5.72;;;4.20;99.90;;;;;;5085870;28;20240;-64
2021/12/10 00:25:49;;;;;;;5.72;5.22;;;4.20;99.90;;;;;;5074568;28;20249;-65
2021/12/10 00:28:22;;;;;;;6.78;6.18;;;4.10;99.90;;;;;;5088278;28;20708;-66
2021/12/10 00:31:05;;;;;;;6.18;5.63;;;4.10;99.90;;;;;;5082801;28;20246;-64
2021/12/10 00:33:40;;;;;;;9.95;6.00;;;4.10;99.90;;;;;;5077402;28;20207;-64
2021/12/10 00:36:09;;;;;;;6.30;5.57;;;4.20;99.90;;;;;;5060720;28;20256;-64
2021/12/10 00:38:37;;;;;;;6.45;5.85;;;4.20;99.90;;;;;;5083462;28;20683;-64
2021/12/10 00:41:07;;;;;;;7.30;6.00;;;4.10;99.90;;;;;;5072292;28;20220;-65
2021/12/10 00:43:38;;;;;;;7.68;6.30;;;4.00;99.90;;;;;;5072793;28;20211;-65
2021/12/10 00:46:06;;;;;;;6.90;5.82;;;4.00;99.90;;;;;;5059426;28;20822;-64
2021/12/10 00:48:36;;;;;;;7.82;6.38;;;4.00;99.90;;;;;;5085205;28;20202;-65
2021/12/10 00:51:07;;;;;;;9.60;6.43;;;4.10;99.90;;;;;;5084083;28;20271;-65
2021/12/10 00:53:35;;;;;;;7.28;5.95;;;4.20;99.90;;;;;;5077032;28;20310;-66
2021/12/10 00:56:04;;;;;;;8.15;5.60;;;4.20;99.90;;;;;;5088968;28;20225;-64
2021/12/10 00:58:33;;;;;;;8.05;5.88;;;4.00;99.90;;;;;;5079374;28;20281;-64
2021/12/10 01:01:05;;;;;;;11.02;6.68;;;4.00;99.90;;;;;;5081302;28;20243;-65
2021/12/10 01:03:38;;;;;;;12.68;5.85;;;3.90;99.90;;;;;;5088331;28;20243;-64
2021/12/10 01:06:10;;;;;;;7.50;6.80;;;3.80;99.90;;;;;;5081313;28;20194;-64
2021/12/10 01:08:41;;;;;;;8.68;6.60;;;3.90;99.90;;;;;;5084553;28;20278;-64
2021/12/10 01:11:13;;;;;;;8.80;6.82;;;3.90;99.90;;;;;;5071929;28;20214;-65
2021/12/10 01:13:45;;;;;;;10.20;6.93;;;3.80;99.90;;;;;;5085915;28;20642;-64
2021/12/10 01:24:53;;;;;;;9.40;5.75;;;4.10;99.90;;;;;;5080450;28;20242;-63
2021/12/10 01:27:30;;;;;;;10.63;5.45;;;3.90;99.90;;;;;;5078143;28;20657;-64
2021/12/10 01:30:03;;;;;;;11.48;5.93;;;3.80;99.90;;;;;;5080754;28;20644;-64
2021/12/10 01:32:36;;;;;;;13.52;6.70;;;3.80;99.90;;;;;;5084605;28;20211;-65
2021/12/10 01:35:08;;;;;;;10.35;6.65;;;4.00;99.90;;;;;;5083307;28;20663;-65
2021/12/10 01:37:36;;;;;;;9.88;6.38;;;4.20;99.90;;;;;;5075981;28;20227;-65
2021/12/10 01:40:07;;;;;;;8.95;5.40;;;4.30;99.90;;;;;;5082024;28;20219;-64
2021/12/10 01:42:42;;;;;;;10.45;6.07;;;4.30;99.90;;;;;;5079220;28;20640;-65
2021/12/10 01:45:20;;;;;;;8.35;5.57;;;4.30;99.90;;;;;;5077936;28;20191;-64
2021/12/10 01:48:00;;;;;;;13.93;5.80;;;4.40;99.90;;;;;;5072533;28;20223;-64
2021/12/10 01:50:30;;;;;;;9.75;5.30;;;4.50;99.90;;;;;;5085192;28;20191;-65
2021/12/10 01:53:04;;;;;;;10.77;4.97;;;4.40;99.90;;;;;;5082357;28;20218;-64
2021/12/10 01:55:33;;;;;;;7.00;4.75;;;4.40;99.90;;;;;;5076272;28;20282;-65
2021/12/10 01:58:03;;;;;;;9.65;5.93;;;4.40;99.90;;;;;;5087998;28;20264;-65
2021/12/10 02:00:38;;;;;;;9.80;5.45;;;4.30;99.90;;;;;;5079211;28;20898;-65
2021/12/10 02:03:07;;;;;;;8.68;5.95;;;4.30;99.90;;;;;;5079664;28;20199;-63
2021/12/10 02:05:36;;;;;;;21.02;6.88;;;4.20;99.90;;;;;;5087061;28;20248;-64
2021/12/10 02:08:05;;;;;;;13.95;6.40;;;4.20;99.90;;;;;;5074661;28;20198;-64
2021/12/10 02:10:33;;;;;;;7.30;6.10;;;4.40;99.90;;;;;;5073164;28;20281;-65
2021/12/10 02:13:01;;;;;;;11.38;6.25;;;4.70;99.90;;;;;;5082235;28;20246;-65
2021/12/10 02:15:29;;;;;;;11.10;5.07;;;4.70;99.90;;;;;;5076380;28;20539;-65
2021/12/10 02:18:00;;;;;;;7.93;5.72;;;4.70;99.90;;;;;;5087835;28;20663;-65
2021/12/10 02:20:32;;;;;;;8.20;5.60;;;5.00;99.90;;;;;;5077591;28;20190;-65
2021/12/10 02:23:05;;;;;;;7.40;4.68;;;4.90;99.90;;;;;;5080390;28;20230;-64
2021/12/10 02:25:37;;;;;;;10.30;4.43;;;4.90;99.90;;;;;;5086844;28;20285;-65
2021/12/10 02:28:07;;;;;;;7.13;4.47;;;4.80;99.90;;;;;;5074333;28;20226;-64
2021/12/10 02:30:36;;;;;;;9.98;4.45;;;4.80;99.90;;;;;;5083978;28;20620;-66
2021/12/10 02:33:04;;;;;;;7.55;3.78;;;4.80;99.90;;;;;;5083538;28;20238;-65
2021/12/10 02:35:33;;;;;;;9.98;5.38;;;4.90;99.90;;;;;;5075693;28;20298;-64
2021/12/10 02:38:03;;;;;;;12.88;5.28;;;4.90;99.90;;;;;;5087416;28;20230;-64
2021/12/10 02:40:32;;;;;;;10.88;4.25;;;4.90;99.90;;;;;;5070866;28;20659;-63
2021/12/10 02:43:05;;;;;;;14.20;5.78;;;5.00;99.90;;;;;;5081936;28;20222;-65
2021/12/10 02:45:34;;;;;;;8.95;4.45;;;5.00;99.90;;;;;;5078252;28;20570;-65
2021/12/10 02:48:02;;;;;;;7.00;4.07;;;5.10;99.90;;;;;;5080365;28;20225;-65
2021/12/10 02:50:32;;;;;;;14.13;4.28;;;5.30;99.90;;;;;;5086579;28;20229;-65
2021/12/10 02:53:02;;;;;;;7.32;4.43;;;5.40;99.90;;;;;;5086847;28;20637;-65
2021/12/10 02:55:30;;;;;;;9.15;5.05;;;5.20;99.90;;;;;;5079637;28;20286;-64
2021/12/10 02:58:05;;;;;;;8.52;4.43;;;5.10;99.90;;;;;;5091106;28;20724;-64
2021/12/10 03:00:36;;;;;;;5.95;4.07;;;5.00;99.90;;;;;;5082051;28;20200;-64
2021/12/10 03:03:04;;;;;;;12.25;3.85;;;4.80;99.90;;;;;;5083305;28;20202;-65
2021/12/10 03:05:32;;;;;;;7.95;3.75;;;4.70;99.90;;;;;;5088335;28;20277;-64
2021/12/10 03:08:02;;;;;;;9.75;3.28;;;4.70;99.90;;;;;;5091679;28;20676;-64
2021/12/10 03:10:32;;;;;;;11.27;3.65;;;4.60;99.90;;;;;;5074269;28;20329;-63
2021/12/10 03:13:00;;;;;;;8.10;3.53;;;4.70;99.90;;;;;;5085737;28;20218;-64
2021/12/10 03:15:30;;;;;;;14.30;3.03;;;4.90;99.90;;;;;;5079520;28;20191;-66
2021/12/10 03:17:59;;;;;;;11.13;3.47;;;5.10;99.90;;;;;;5090950;28;20222;-65
2021/12/10 03:20:29;;;;;;;8.93;2.85;;;5.20;99.90;;;;;;5081326;28;20229;-64
2021/12/10 03:22:58;;;;;;;7.78;2.80;;;5.20;99.90;;;;;;5083923;28;20680;-64
2021/12/10 03:25:27;;;;;;;9.05;2.95;;;5.10;99.90;;;;;;5088798;28;20214;-63
2021/12/10 03:27:56;;;;;;;5.22;2.92;;;5.00;99.90;;;;;;5077486;28;20203;-64
2021/12/10 03:30:27;;;;;;;9.95;2.80;;;4.90;99.90;;;;;;5088374;28;20219;-62
2021/12/10 03:32:56;;;;;;;8.30;2.55;;;4.80;99.90;;;;;;5084481;28;20195;-61
2021/12/10 03:35:28;;;;;;;5.45;2.92;;;5.00;99.90;;;;;;5079829;28;20245;-66
2021/12/10 03:37:58;;;;;;;8.15;3.20;;;5.20;99.90;;;;;;5090769;28;20249;-65
2021/12/10 03:40:28;;;;;;;8.73;2.53;;;5.20;99.90;;;;;;5081328;28;20241;-65
2021/12/10 03:42:58;;;;;;;7.38;2.75;;;5.30;99.90;;;;;;5074036;28;20199;-64
2021/12/10 03:45:29;;;;;;;6.68;3.15;;;5.40;99.90;;;;;;5088585;28;20210;-64
2021/12/10 03:47:59;;;;;;;5.07;2.70;;;5.60;99.90;;;;;;5077333;28;20231;-64
2021/12/10 03:50:31;;;;;;;6.90;3.00;;;5.70;99.90;;;;;;5087554;28;20195;-65
2021/12/10 03:52:59;;;;;;;9.32;2.70;;;5.70;99.90;;;;;;5084780;28;20194;-65
2021/12/10 03:55:29;;;;;;;7.57;3.30;;;5.80;99.90;;;;;;5078191;28;20219;-66
2021/12/10 03:57:58;;;;;;;4.55;2.40;;;5.80;99.90;;;;;;5084396;28;20298;-64
2021/12/10 04:00:31;;;;;;;4.53;2.80;;;5.70;99.90;;;;;;5088109;28;20230;-65
2021/12/10 04:02:59;;;;;;;10.15;3.00;;;5.50;99.90;;;;;;5084487;28;20267;-64
2021/12/10 04:05:27;;;;;;;8.95;3.65;;;5.00;99.90;;;;;;5078720;28;20199;-64
2021/12/10 04:07:55;;;;;;;7.80;3.00;;;4.50;99.90;;;;;;5089986;28;20600;-64
2021/12/10 04:10:24;;;;;;;8.38;3.80;;;4.30;99.90;;;;;;5073004;28;20310;-64
2021/12/10 04:12:54;;;;;;;7.68;4.50;;;4.00;99.90;;;;;;5083345;28;20664;-65
2021/12/10 04:15:25;;;;;;;8.85;4.07;;;3.80;99.90;;;;;;5079094;28;20719;-65
2021/12/10 04:17:56;;;;;;;10.00;4.50;;;3.80;99.90;;;;;;5089909;28;20236;-63
2021/12/10 04:20:28;;;;;;;7.18;4.30;;;3.80;99.90;;;;;;5077668;28;20697;-64
2021/12/10 04:22:58;;;;;;;9.02;3.95;;;3.70;99.90;;;;;;5093414;28;20202;-63
2021/12/10 04:25:26;;;;;;;9.50;4.47;;;3.70;99.90;;;;;;5078440;28;20722;-64
2021/12/10 04:28:07;;;;;;;12.05;4.00;;;3.60;99.90;;;;;;5089535;28;20233;-62
2021/12/10 04:30:39;;;;;;;7.30;3.95;;;3.70;99.90;;;;;;5080755;28;20222;-63
2021/12/10 04:33:08;;;;;;;9.35;4.80;;;3.50;99.90;;;;;;5081040;28;20298;-63
2021/12/10 04:35:36;;;;;;;6.80;3.95;;;3.30;99.90;;;;;;5084824;28;20215;-63
2021/12/10 04:38:05;;;;;;;8.48;4.38;;;3.20;99.90;;;;;;5089651;28;20233;-64
2021/12/10 04:40:33;;;;;;;6.97;3.70;;;3.10;99.90;;;;;;5071136;28;20191;-64
2021/12/10 04:43:03;;;;;;;6.53;4.13;;;3.20;99.90;;;;;;5072581;28;20278;-63
2021/12/10 04:45:31;;;;;;;6.18;3.70;;;3.20;99.90;;;;;;5077959;28;20290;-64
2021/12/10 04:47:59;;;;;;;7.32;4.35;;;3.60;99.90;;;;;;5089099;28;20237;-62
2021/12/10 04:50:29;;;;;;;13.90;4.68;;;3.70;99.90;;;;;;5079249;28;20229;-64
2021/12/10 04:52:59;;;;;;;8.88;3.65;;;3.80;99.90;;;;;;5082154;28;20253;-64
2021/12/10 04:55:28;;;;;;;10.13;4.30;;;3.80;99.90;;;;;;5086472;28;20262;-64
2021/12/10 04:57:56;;;;;;;6.05;4.05;;;3.60;99.90;;;;;;5073049;28;20231;-63
2021/12/10 05:00:29;;;;;;;13.25;4.20;;;3.50;99.90;;;;;;5072547;28;20301;-64
2021/12/10 05:03:00;;;;;;;9.52;4.57;;;3.70;99.90;;;;;;5072125;28;20201;-63
2021/12/10 05:05:28;;;;;;;5.85;4.15;;;3.70;99.90;;;;;;5072393;28;20202;-63
2021/12/10 05:07:57;;;;;;;8.85;3.63;;;3.90;99.90;;;;;;5071638;28;20278;-63
2021/12/10 05:10:25;;;;;;;5.90;4.10;;;3.80;99.90;;;;;;5072096;28;20260;-64
2021/12/10 05:12:53;;;;;;;10.48;4.00;;;4.00;99.90;;;;;;5072071;28;20731;-64
2021/12/10 05:15:25;;;;;;;9.52;3.90;;;3.90;99.90;;;;;;5072003;28;20276;-64
2021/12/10 05:17:54;;;;;;;5.53;3.22;;;3.90;99.90;;;;;;5072426;28;20289;-64
2021/12/10 05:20:25;;;;;;;8.02;3.83;;;4.10;99.90;;;;;;5071931;28;20672;-64
2021/12/10 05:22:54;;;;;;;10.10;4.15;;;4.30;99.90;;;;;;5052223;28;20680;-64
2021/12/10 05:25:24;;;;;;;6.20;2.90;;;4.40;99.90;;;;;;5051669;28;20279;-64
2021/12/10 05:27:52;;;;;;;5.32;2.97;;;4.60;99.90;;;;;;5052034;28;20560;-64
2021/12/10 05:30:23;;;;;;;5.25;3.10;;;4.70;99.90;;;;;;5051476;28;20302;-64
2021/12/10 05:32:52;;;;;;;4.82;3.25;;;4.90;99.90;;;;;;5052140;28;20287;-63
2021/12/10 05:35:20;;;;;;;7.40;3.60;;;5.00;99.90;;;;;;5051642;28;20295;-64
2021/12/10 05:37:48;;;;;;;8.50;5.63;;;5.10;99.90;;;;;;5062809;28;20223;-64
2021/12/10 05:40:21;;;;;;;12.55;6.50;;;5.00;99.90;;;;;;5068876;28;20608;-65
2021/12/10 05:42:49;;;;;;;9.07;5.20;;;5.00;99.90;;;;;;5051737;28;20282;-64
2021/12/10 05:45:18;;;;;;;7.63;5.10;;;5.00;99.90;;;;;;5051970;28;20223;-65
2021/12/10 05:47:47;;;;;;;12.00;6.85;;;4.90;99.90;;;;;;5051815;28;20212;-64
2021/12/10 05:50:19;;;;;;;7.07;4.43;;;4.90;99.90;;;;;;5050979;28;20649;-64
2021/12/10 05:52:47;;;;;;;17.83;8.80;;;4.80;99.90;;;;;;5044183;28;20220;-65
2021/12/10 05:55:17;;;;;;;15.95;9.52;;;4.70;99.90;;;;;;5044013;28;20220;-64
2021/12/10 05:57:45;;;;;;;13.23;8.98;;;4.30;99.90;;;;;;5047219;28;20859;-66
2021/12/10 06:00:16;;;;;;;10.07;6.10;;;4.00;99.90;;;;;;5044046;28;20204;-63
2021/12/10 06:02:44;;;;;;;9.88;6.05;;;3.80;99.90;;;;;;5044097;28;20199;-64
2021/12/10 06:05:12;;;;;;;9.63;4.63;;;3.60;99.90;;;;;;5043981;28;20202;-65
2021/12/10 06:07:42;;;;;;;8.10;4.47;;;3.50;99.90;;;;;;5042009;28;20228;-64
2021/12/10 06:10:12;;;;;;;7.88;4.32;;;3.20;99.90;;;;;;5046088;28;20200;-63
2021/12/10 06:12:41;;;;;;;4.63;3.90;;;3.10;99.90;;;;;;5037264;28;20739;-65
2021/12/10 06:15:11;;;;;;;7.15;3.95;;;3.00;99.90;;;;;;5041983;28;20299;-63
2021/12/10 06:17:39;;;;;;;10.13;4.75;;;2.90;99.90;;;;;;5045723;28;20283;-64
2021/12/10 06:20:10;;;;;;;7.78;4.75;;;2.80;99.90;;;;;;5044794;28;20204;-64
2021/12/10 06:22:38;;;;;;;7.25;4.72;;;2.70;99.90;;;;;;5061442;28;20678;-63
2021/12/10 06:25:08;;;;;;;8.02;4.75;;;2.50;99.90;;;;;;5063467;28;21003;-63
2021/12/10 06:27:38;;;;;;;8.00;5.05;;;2.30;99.90;;;;;;5064587;28;20238;-64
2021/12/10 06:30:07;;;;;;;5.85;4.45;;;2.30;99.90;;;;;;5065830;28;20231;-64
2021/12/10 06:32:35;;;;;;;5.97;4.85;;;2.20;99.90;;;;;;5062728;28;20246;-64
2021/12/10 06:35:03;;;;;;;10.55;5.15;;;2.10;99.90;;;;;;5064802;28;20286;-67
2021/12/10 06:37:31;;;;;;;8.25;5.40;;;2.00;99.90;;;;;;5068962;28;20222;-65
2021/12/10 06:39:59;;;;;;;10.88;5.18;;;2.00;99.90;;;;;;5064047;28;20287;-65
2021/12/10 06:42:29;;;;;;;7.75;6.05;;;1.90;99.90;;;;;;5067373;28;20381;-63
2021/12/10 06:45:04;;;;;;;8.95;5.90;;;1.90;99.90;;;;;;5070232;28;20256;-63
2021/12/10 06:47:32;;;;;;;7.93;5.10;;;1.80;99.90;;;;;;5074475;28;20244;-63
2021/12/10 06:50:00;;;;;;;6.97;5.30;;;1.80;99.90;;;;;;5069894;28;20222;-63
2021/12/10 06:52:28;;;;;;;8.48;5.30;;;1.80;99.90;;;;;;5069071;28;20297;-64
2021/12/10 06:54:56;;;;;;;8.07;5.75;;;1.80;99.90;;;;;;5074358;28;20209;-62
2021/12/10 06:57:24;;;;;;;10.00;6.38;;;1.70;99.90;;;;;;5072933;28;20812;-63
2021/12/10 06:59:53;;;;;;;8.35;5.22;;;1.70;99.90;;;;;;5071418;28;20195;-64
2021/12/10 07:02:21;;;;;;;8.65;5.65;;;1.70;99.90;;;;;;5085964;28;20739;-63
2021/12/10 07:04:50;;;;;;;6.10;5.55;;;1.70;99.90;;;;;;5071212;28;20201;-63
2021/12/10 07:07:17;;;;;;;10.32;5.75;;;1.70;99.90;;;;;;5070780;28;20291;-63
2021/12/10 07:09:45;;;;;;;8.48;6.68;;;1.70;99.90;;;;;;5070610;28;20274;-65
2021/12/10 07:12:13;;;;;;;11.43;7.18;;;1.60;99.90;;;;;;5070591;28;20322;-65
2021/12/10 07:14:43;;;;;;;11.65;6.70;;;1.60;99.90;;;;;;5071376;28;20282;-65
2021/12/10 07:17:12;;;;;;;12.38;6.85;;;1.60;99.90;;;;;;5070583;28;20268;-65
2021/12/10 07:19:42;;;;;;;11.40;7.43;;;1.60;99.90;;;;;;5070702;28;20183;-65
2021/12/10 07:22:11;;;;;;;11.77;6.60;;;1.60;99.90;;;;;;5094766;22;20699;-71
2021/12/10 07:24:39;;;;;;;14.55;7.07;;;1.60;99.90;;;;;;5090679;28;20203;-70
2021/12/10 07:27:11;;;;;;;10.20;7.47;;;1.50;99.90;;;;;;5089694;28;20183;-71
2021/12/10 07:29:40;;;;;;;12.98;7.00;;;1.60;99.90;;;;;;5090900;28;20219;-72
2021/12/10 07:32:09;;;;;;;14.18;7.50;;;1.60;99.90;;;;;;5094420;28;20233;-71
2021/12/10 07:34:38;;;;;;;10.75;8.43;;;1.60;99.90;;;;;;5094642;28;20194;-70
2021/12/10 07:37:09;;;;;;;13.48;7.88;;;1.60;99.90;;;;;;5094064;28;20714;-71
2021/12/10 07:39:38;;;;;;;9.70;7.93;;;1.60;99.90;;;;;;5094320;28;20267;-70
2021/12/10 07:42:07;;;;;;;16.63;9.10;;;1.60;99.90;;;;;;5093158;28;20254;-71
2021/12/10 07:44:35;;;;;;;8.35;7.03;;;1.70;99.90;;;;;;5093881;28;20190;-71
2021/12/10 07:47:05;;;;;;;11.82;9.10;;;1.80;99.90;;;;;;5093810;28;20240;-70
2021/12/10 07:49:33;;;;;;;11.50;8.27;;;1.90;99.90;;;;;;5094368;28;20197;-71
2021/12/10 07:52:04;;;;;;;12.18;10.25;;;2.10;99.90;;;;;;5094074;28;20256;-71
2021/12/10 07:54:32;;;;;;;10.88;7.40;;;2.30;99.90;;;;;;5093581;28;20230;-70
2021/12/10 07:57:00;;;;;;;12.25;7.68;;;2.40;99.90;;;;;;5093382;28;20246;-71
2021/12/10 07:59:28;;;;;;;8.75;6.95;;;2.60;99.90;;;;;;5078382;28;20226;-71
2021/12/10 08:01:56;;;;;;;11.43;6.80;;;2.80;99.90;;;;;;5073624;28;20233;-72
2021/12/10 08:04:24;;;;;;;8.93;6.15;;;3.00;99.90;;;;;;5073684;28;20191;-71
2021/12/10 08:06:52;;;;;;;7.38;5.47;;;3.30;99.90;;;;;;5074384;28;20195;-70
2021/12/10 08:09:21;;;;;;;8.23;5.97;;;3.50;99.90;;;;;;5074254;28;20199;-71
2021/12/10 08:11:50;;;;;;;9.38;6.65;;;3.80;99.90;;;;;;5087419;28;20230;-71
2021/12/10 08:14:18;;;;;;;8.05;5.85;;;4.00;99.90;;;;;;5090601;28;20198;-70
2021/12/10 08:16:49;;;;;;;9.95;5.28;;;4.00;99.90;;;;;;5093878;28;20238;-72
2021/12/10 08:19:17;;;;;;;8.80;5.03;;;4.00;99.90;;;;;;5094023;28;20202;-71
2021/12/10 08:21:45;;;;;;;9.85;5.95;;;4.10;99.90;;;;;;5093861;28;20775;-71
2021/12/10 08:24:14;;;;;;;7.88;5.47;;;4.30;99.90;;;;;;5094042;28;20671;-71
2021/12/10 08:26:43;;;;;;;7.32;4.72;;;4.70;99.90;;;;;;5093174;28;20190;-70
2021/12/10 08:29:12;;;;;;;7.30;5.13;;;4.90;99.90;;;;;;5093415;28;20697;-69
2021/12/10 08:31:40;;;;;;;6.28;4.00;;;5.20;99.90;;;;;;5092890;28;20211;-71
2021/12/10 08:34:09;;;;;;;6.90;4.63;;;5.30;99.90;;;;;;5092985;28;20766;-70
2021/12/10 08:36:37;;;;;;;10.48;4.95;;;5.20;99.90;;;;;;5092843;28;20764;-70
2021/12/10 08:39:07;;;;;;;5.93;4.97;;;5.00;99.90;;;;;;5093216;28;20233;-70
2021/12/10 08:41:35;;;;;;;8.38;4.60;;;4.70;99.90;;;;;;5091940;28;20309;-71
2021/12/10 08:44:07;;;;;;;8.73;5.07;;;4.40;99.90;;;;;;5079797;28;20213;-68
2021/12/10 08:46:37;;;;;;;8.75;5.30;;;4.10;99.90;;;;;;5092577;28;20220;-70
2021/12/10 08:49:05;;;;;;;9.05;6.30;;;3.80;99.90;;;;;;5093201;28;20817;-70
2021/12/10 08:51:36;;;;;;;6.80;5.60;;;3.70;99.90;;;;;;5092900;28;20218;-72
2021/12/10 08:54:04;;;;;;;9.45;6.65;;;3.60;99.90;;;;;;5092924;28;20736;-70
2021/12/10 08:56:32;;;;;;;8.93;5.75;;;3.50;99.90;;;;;;5092315;28;20280;-70
2021/12/10 08:59:01;;;;;;;9.35;4.70;;;3.40;99.90;;;;;;5092550;28;20191;-70
2021/12/10 09:01:33;;;;;;;9.95;5.05;;;3.40;99.90;;;;;;5072540;28;20241;-70
2021/12/10 09:04:03;;;;;;;6.68;4.70;;;3.40;99.90;;;;;;5072503;28;20206;-70
2021/12/10 09:06:34;;;;;;;6.97;5.22;;;3.40;99.90;;;;;;5071979;28;20188;-70
2021/12/10 09:09:05;;;;;;;9.10;5.30;;;3.50;99.90;;;;;;5072430;28;20230;-69
2021/12/10 09:11:34;;;;;;;9.07;5.28;;;3.60;99.90;;;;;;5085070;28;20310;-70
2021/12/10 09:14:18;;;;;;;6.63;5.03;;;3.70;99.90;;;;;;5092268;28;20202;-70
2021/12/10 09:16:48;;;;;;;10.38;5.03;;;3.90;99.90;;;;;;5091743;28;20234;-70
2021/12/10 09:19:17;;;;;;;7.20;4.60;;;4.00;99.90;;;;;;5092405;28;20201;-70
2021/12/10 09:21:46;;;;;;;8.25;4.53;;;4.20;99.90;;;;;;5092059;28;20709;-72
2021/12/10 09:24:17;;;;;;;7.22;4.78;;;4.40;99.90;;;;;;5092225;28;20199;-71
2021/12/10 09:26:48;;;;;;;6.70;4.68;;;4.50;99.90;;;;;;5091973;28;20629;-70
2021/12/10 09:29:17;;;;;;;5.38;4.35;;;4.70;99.90;;;;;;5091899;28;20376;-70
2021/12/10 09:31:47;;;;;;;16.98;5.85;;;4.80;99.90;;;;;;5092198;28;20219;-70
2021/12/10 09:34:17;;;;;;;7.40;3.80;;;5.00;99.90;;;;;;5092113;28;20194;-70
2021/12/10 09:36:48;;;;;;;7.47;4.50;;;5.00;99.90;;;;;;5091485;28;20194;-71
2021/12/10 09:39:19;;;;;;;4.53;3.90;;;4.80;99.90;;;;;;5092172;28;20203;-70
2021/12/10 09:41:48;;;;;;;10.60;4.90;;;4.60;99.90;;;;;;5091712;28;20667;-70
2021/12/10 09:44:17;;;;;;;7.05;3.90;;;4.40;99.90;;;;;;5091287;28;20675;-71
2021/12/10 09:46:49;;;;;;;7.70;5.00;;;4.20;99.90;;;;;;5091617;28;20727;-72
2021/12/10 09:49:17;;;;;;;6.72;4.20;;;4.10;99.90;;;;;;5091680;28;20201;-70
2021/12/10 09:51:49;;;;;;;6.95;5.50;;;3.90;99.90;;;;;;5091658;28;20734;-71
2021/12/10 09:54:20;;;;;;;6.63;4.47;;;3.90;99.90;;;;;;5091780;28;20190;-70
2021/12/10 09:56:55;;;;;;;8.27;4.57;;;3.70;99.90;;;;;;5091240;28;20263;-68
2021/12/10 09:59:24;;;;;;;6.50;4.35;;;3.70;99.90;;;;;;5091312;28;20282;-69
2021/12/10 10:01:55;;;;;;;9.57;5.07;;;3.70;99.90;;;;;;5091446;28;20214;-70
2021/12/10 10:04:26;;;;;;;7.75;5.13;;;3.60;99.90;;;;;;5091564;28;20190;-70
2021/12/10 10:06:56;;;;;;;7.57;4.47;;;3.70;99.90;;;;;;5091443;28;20205;-71
2021/12/10 10:09:25;;;;;;;7.85;4.95;;;3.60;99.90;;;;;;5091674;28;20199;-70
2021/12/10 10:11:58;;;;;;;9.13;4.75;;;3.50;99.90;;;;;;5091059;28;20253;-71
2021/12/10 10:14:27;;;;;;;7.97;4.60;;;3.40;99.90;;;;;;5085838;28;20203;-71
2021/12/10 10:16:56;;;;;;;5.65;4.28;;;3.40;99.90;;;;;;5087935;28;20221;-71
2021/12/10 10:19:26;;;;;;;6.40;4.50;;;3.40;99.90;;;;;;5091628;28;20244;-70
2021/12/10 10:21:57;;;;;;;10.13;5.07;;;3.40;99.90;;;;;;5091076;28;20234;-71
2021/12/10 10:24:27;;;;;;;10.38;4.53;;;3.40;99.90;;;;;;5090912;28;20229;-71
2021/12/10 10:26:59;;;;;;;8.25;3.90;;;3.40;99.90;;;;;;5090971;28;20218;-71
2021/12/10 10:29:33;;;;;;;10.30;5.65;;;3.40;99.90;;;;;;5091360;28;20202;-70
2021/12/10 10:32:09;;;;;;;4.93;4.25;;;3.40;99.90;;;;;;5091229;28;20234;-71
2021/12/10 10:34:41;;;;;;;10.18;4.82;;;3.50;99.90;;;;;;5091524;28;20226;-71
2021/12/10 10:37:09;;;;;;;7.75;3.92;;;3.50;99.90;;;;;;5090137;28;20694;-72
2021/12/10 10:39:40;;;;;;;6.15;3.95;;;3.60;99.90;;;;;;5091401;28;20199;-71
2021/12/10 10:42:13;;;;;;;8.48;5.00;;;3.60;99.90;;;;;;5089864;28;20225;-70
2021/12/10 10:45:02;;;;;;;5.82;4.28;;;3.60;99.90;;;;;;5099561;28;20201;-71
2021/12/10 10:47:32;;;;;;;5.82;4.13;;;3.70;99.90;;;;;;5109264;28;20201;-71
2021/12/10 10:50:11;;;;;;;6.45;3.60;;;3.70;99.90;;;;;;5111668;28;20190;-70
2021/12/10 10:52:41;;;;;;;8.20;3.97;;;3.70;99.90;;;;;;5103841;28;20275;-71
2021/12/10 10:55:18;;;;;;;8.23;3.97;;;3.80;99.90;;;;;;5090982;28;20312;-71
2021/12/10 10:57:54;;;;;;;8.25;3.70;;;3.90;99.90;;;;;;5090587;28;20276;-71
2021/12/10 11:00:32;;;;;;;4.63;3.45;;;4.00;99.90;;;;;;5091147;28;20225;-71
2021/12/10 11:03:08;;;;;;;5.43;2.90;;;4.00;99.90;;;;;;5091121;28;20268;-71
2021/12/10 11:05:46;;;;;;;6.07;2.80;;;4.00;99.90;;;;;;5092048;28;20210;-72
2021/12/10 11:08:14;;;;;;;4.13;2.70;;;4.10;99.90;;;;;;5094603;28;20206;-70
2021/12/10 11:10:45;;;;;;;4.57;3.15;;;4.10;99.90;;;;;;5094680;28;20209;-71
2021/12/10 11:13:20;;;;;;;7.78;3.20;;;4.20;99.90;;;;;;5094742;28;20230;-70
2021/12/10 11:16:05;;;;;;;8.13;2.22;;;4.20;99.90;;;;;;5094413;28;20277;-70
2021/12/10 11:18:47;;;;;;;4.25;2.38;;;4.20;99.90;;;;;;5094859;28;20214;-70
2021/12/10 11:21:16;;;;;;;7.10;3.17;;;4.20;99.90;;;;;;5094583;28;20690;-70
2021/12/10 11:23:45;;;;;;;4.63;2.78;;;4.20;99.90;;;;;;5094484;28;20609;-70
2021/12/10 11:26:13;;;;;;;5.30;3.15;;;4.20;99.90;;;;;;5094302;28;20259;-70
2021/12/10 11:28:42;;;;;;;5.47;2.70;;;4.20;99.90;;;;;;5091570;28;20219;-70
2021/12/10 11:31:15;;;;;;;7.10;3.17;;;4.30;99.90;;;;;;5089215;28;20199;-71
2021/12/10 11:33:49;;;;;;;6.18;3.20;;;4.30;99.90;;;;;;5094637;28;20209;-70
2021/12/10 11:36:22;;;;;;;8.23;2.80;;;4.30;99.90;;;;;;5094070;28;20195;-72
2021/12/10 11:38:55;;;;;;;6.07;3.10;;;4.20;99.90;;;;;;5093971;28;20293;-70
2021/12/10 11:41:26;;;;;;;3.45;2.60;;;4.30;99.90;;;;;;5095658;28;20240;-70
2021/12/10 11:44:07;;;;;;;6.43;2.63;;;4.20;99.90;;;;;;5095790;28;20698;-70
2021/12/10 11:46:51;;;;;;;4.15;2.70;;;4.40;99.90;;;;;;5095590;28;20202;-70
2021/12/10 11:49:25;;;;;;;5.80;3.20;;;4.50;99.90;;;;;;5095742;28;20254;-70
2021/12/10 11:52:00;;;;;;;16.23;3.95;;;4.50;99.90;;;;;;5095724;28;20265;-70
2021/12/10 11:54:32;;;;;;;4.00;2.58;;;4.60;99.90;;;;;;5095327;28;20194;-70
2021/12/10 11:57:09;;;;;;;4.22;2.30;;;4.70;99.90;;;;;;5092291;28;20290;-72
2021/12/10 11:59:40;;;;;;;3.55;2.30;;;4.80;99.90;;;;;;5080841;28;20214;-71
2021/12/10 12:02:10;;;;;;;4.07;2.00;;;4.70;99.90;;;;;;5077825;28;20265;-70
2021/12/10 12:04:43;;;;;;;4.25;2.40;;;4.70;99.90;;;;;;5073917;28;20209;-70
2021/12/10 12:07:29;;;;;;;6.38;2.50;;;4.60;99.90;;;;;;5073381;28;20203;-71
2021/12/10 12:10:03;;;;;;;6.63;2.65;;;4.50;99.90;;;;;;5073753;28;20199;-71
2021/12/10 12:12:39;;;;;;;9.65;2.38;;;4.30;99.90;;;;;;5091507;28;20309;-70
2021/12/10 12:15:13;;;;;;;7.00;2.60;;;4.40;99.90;;;;;;5093707;28;20199;-70
2021/12/10 12:17:44;;;;;;;3.17;2.47;;;4.20;99.90;;;;;;5093302;28;20194;-70
2021/12/10 12:20:35;;;;;;;4.30;3.25;;;4.00;99.90;;;;;;5093674;28;20697;-71
2021/12/10 12:25:57;;;;;;;2.78;2.58;;;3.90;99.90;;;;;;5092894;28;20194;-69
2021/12/10 12:28:45;;;;;;;4.30;2.40;;;3.80;99.90;;;;;;5093489;28;20183;-70
2021/12/10 12:31:36;;;;;;;3.78;2.50;;;3.60;99.90;;;;;;5093368;28;20217;-70
2021/12/10 12:34:08;;;;;;;2.40;2.20;;;3.50;99.90;;;;;;5093424;28;20563;-70
2021/12/10 12:36:42;;;;;;;5.25;2.90;;;3.30;99.90;;;;;;5092925;28;20618;-70
2021/12/10 12:39:14;;;;;;;3.58;2.80;;;3.30;99.90;;;;;;5092960;28;20215;-70
2021/12/10 12:41:45;;;;;;;3.35;2.30;;;3.10;99.90;;;;;;5092720;28;20221;-70
2021/12/10 12:44:18;;;;;;;5.43;2.80;;;3.00;99.90;;;;;;5092903;28;20260;-70
2021/12/10 12:47:12;;;;;;;3.72;3.35;;;3.00;99.90;;;;;;5072665;28;20221;-70
2021/12/10 12:49:59;;;;;;;3.95;3.30;;;3.00;99.90;;;;;;5072698;28;20195;-70
2021/12/10 12:52:35;;;;;;;4.78;2.88;;;3.00;99.90;;;;;;5072880;28;20242;-70
2021/12/10 12:55:29;;;;;;;5.03;3.47;;;3.00;99.90;;;;;;5072639;28;20198;-72
2021/12/10 12:58:13;;;;;;;4.05;3.28;;;3.00;99.90;;;;;;5072282;28;20203;-70
2021/12/10 13:01:09;;;;;;;3.65;3.35;;;3.10;99.90;;;;;;5077853;28;20580;-71
2021/12/10 13:03:44;;;;;;;6.10;3.20;;;3.20;99.90;;;;;;5092875;28;20190;-71
2021/12/10 13:06:35;;;;;;;3.65;3.35;;;3.30;99.90;;;;;;5092222;28;20190;-71
2021/12/10 13:09:08;;;;;;;4.32;3.50;;;3.30;99.90;;;;;;5092670;28;20209;-70
2021/12/10 13:11:49;;;;;;;7.75;6.28;;;3.30;99.90;;;;;;5092324;28;20235;-71
2021/12/10 13:14:20;;;;;;;7.80;6.97;;;3.40;99.90;;;;;;5092429;28;20229;-71
2021/12/10 13:16:52;;;;;;;7.45;5.20;;;3.60;99.90;;;;;;5091964;28;20194;-71
2021/12/10 13:19:22;;;;;;;3.92;3.00;;;3.70;99.90;;;;;;5092525;28;20707;-69
2021/12/10 13:22:02;;;;;;;5.07;2.45;;;3.80;99.90;;;;;;5092668;28;20248;-68
2021/12/10 13:24:31;;;;;;;2.85;1.98;;;3.90;99.90;;;;;;5092535;28;20226;-71
2021/12/10 13:26:59;;;;;;;3.08;2.35;;;4.00;99.90;;;;;;5092190;28;20317;-71